Terminal Aerodrome Forecast
Issued by NWS Nashville, TN

Home | Current Version | Previous Version | Text Only | Print | Product List | Glossary On
Versions: 1 2 3 4 5 6 7 8 9 10 11 12 13 14 15 16 17 18 19 20 21 22 23 24 25 26
000
FTUS44 KOHX 210538
TAFCSV
TAF
KCSV 210538Z 2106/2206 20006KT P6SM OVC090
     FM211000 25004KT P6SM VCSH OVC040
     FM211200 27005KT P6SM VCSH OVC007
     FM211600 28010G18KT P6SM OVC015
     FM211900 29009G14KT P6SM BKN025=

USA.gov is the U.S. government's official web portal to all federal, state and local government web resources and services.